createdAt,value
2018-01-27T00:00:30.985Z,5.30
2018-01-27T00:02:59.251Z,5.30
2018-01-27T00:05:27.477Z,5.30
2018-01-27T00:07:56.764Z,5.40
2018-01-27T00:10:26.580Z,5.40
2018-01-27T00:12:54.808Z,5.40
2018-01-27T07:00:54.612Z,5.00
2018-01-27T07:03:23.617Z,5.10
2018-01-27T07:05:51.849Z,5.10
2018-01-27T07:08:20.056Z,5.10
2018-01-27T07:10:49.064Z,5.20
2018-01-27T07:13:17.272Z,5.20
2018-01-27T07:15:46.344Z,5.20
2018-01-27T07:18:14.552Z,5.20
2018-01-27T07:20:42.788Z,5.20
2018-01-27T07:23:12.249Z,5.20
2018-01-27T07:25:40.484Z,5.10
2018-01-27T07:28:08.692Z,5.10
2018-01-27T07:30:36.916Z,5.20
2018-01-27T07:33:05.152Z,5.20
2018-01-27T07:35:33.398Z,5.20
2018-01-27T07:38:01.632Z,5.10
2018-01-27T07:40:29.868Z,5.10
2018-01-27T07:42:58.184Z,5.10
2018-01-27T07:45:26.425Z,5.00
2018-01-27T07:47:56.800Z,5.00
2018-01-27T07:50:26.845Z,5.00
2018-01-27T07:52:55.182Z,5.00
2018-01-27T07:55:23.456Z,5.10
2018-01-27T07:57:52.385Z,5.10
2018-01-27T08:00:20.663Z,5.10
2018-01-27T08:02:48.872Z,5.10
2018-01-27T08:05:17.096Z,5.20
2018-01-27T08:07:45.376Z,5.40
2018-01-27T08:10:13.604Z,5.60
2018-01-27T08:12:41.839Z,5.80
2018-01-27T08:15:10.084Z,5.90
2018-01-27T08:17:38.289Z,6.20
2018-01-27T08:20:07.525Z,6.30
2018-01-27T08:22:35.732Z,6.30
2018-01-27T08:25:04.009Z,6.30
2018-01-27T08:27:32.223Z,6.30
2018-01-27T08:30:00.464Z,6.30
2018-01-27T08:32:28.736Z,6.30
2018-01-27T08:34:57.009Z,6.30
2018-01-27T08:37:25.987Z,6.30
2018-01-27T08:39:54.990Z,6.30
2018-01-27T08:42:23.988Z,6.30
2018-01-27T08:44:52.993Z,6.30
2018-01-27T08:47:21.537Z,6.30
2018-01-27T08:49:49.863Z,6.30
2018-01-27T08:52:18.120Z,6.30
2018-01-27T08:54:47.179Z,6.30
2018-01-27T08:57:15.514Z,6.30
2018-01-27T08:59:43.780Z,6.50
2018-01-27T09:02:11.988Z,6.70
2018-01-27T09:04:40.240Z,6.90
2018-01-27T09:07:08.448Z,7.00
2018-01-27T09:09:36.656Z,7.10
2018-01-27T09:12:05.668Z,7.20
2018-01-27T09:14:33.876Z,7.20
2018-01-27T09:17:02.117Z,7.20
2018-01-27T09:19:30.735Z,7.30
2018-01-27T09:21:58.948Z,7.30
2018-01-27T09:24:27.275Z,7.30
2018-01-27T09:26:55.502Z,7.30
2018-01-27T09:29:23.739Z,7.20
2018-01-27T09:31:52.001Z,7.40
2018-01-27T09:34:20.280Z,7.30
2018-01-27T09:36:48.504Z,7.20
2018-01-27T09:39:16.740Z,7.10
2018-01-27T09:41:45.854Z,6.90
2018-01-27T09:44:14.089Z,6.70
2018-01-27T09:46:42.304Z,6.70
2018-01-27T09:49:10.550Z,6.60
2018-01-27T09:51:38.805Z,6.40
2018-01-27T09:54:07.824Z,6.50
2018-01-27T09:56:36.024Z,6.50
2018-01-27T09:59:04.261Z,6.70
2018-01-27T10:01:32.524Z,6.80
2018-01-27T10:04:01.528Z,7.10
2018-01-27T10:06:29.761Z,7.10
2018-01-27T10:08:57.997Z,7.20
2018-01-27T10:11:26.209Z,7.40
2018-01-27T10:13:54.451Z,7.40
2018-01-27T10:16:22.653Z,7.50
2018-01-27T10:18:50.889Z,7.60
2018-01-27T10:21:19.101Z,7.60
2018-01-27T10:23:47.322Z,7.70
2018-01-27T10:26:15.605Z,7.60
2018-01-27T10:28:43.878Z,7.40
2018-01-27T10:31:12.329Z,7.30
2018-01-27T10:33:40.565Z,7.30
2018-01-27T10:36:08.781Z,7.30
2018-01-27T10:38:37.012Z,7.30
2018-01-27T10:41:05.220Z,7.30
2018-01-27T10:43:33.476Z,7.40
2018-01-27T10:46:01.680Z,7.50
2018-01-27T10:48:29.929Z,7.50
2018-01-27T10:50:58.236Z,7.50
2018-01-27T10:53:26.418Z,7.30
2018-01-27T10:55:54.645Z,7.30
2018-01-27T10:58:22.962Z,7.50
2018-01-27T11:00:51.134Z,7.60
2018-01-27T11:03:19.445Z,7.50
2018-01-27T11:05:47.720Z,7.40
2018-01-27T11:08:15.933Z,7.50
2018-01-27T11:10:44.168Z,7.60
2018-01-27T11:13:13.168Z,7.30
2018-01-27T11:15:41.381Z,7.30
2018-01-27T11:18:09.627Z,7.40
2018-01-27T11:20:37.837Z,7.40
2018-01-27T11:23:06.173Z,7.70
2018-01-27T11:25:34.381Z,7.60
2018-01-27T11:28:02.593Z,7.80
2018-01-27T11:30:30.832Z,8.00
2018-01-27T11:32:59.042Z,8.30
2018-01-27T11:35:27.283Z,8.40
2018-01-27T11:37:55.779Z,8.60
2018-01-27T11:40:23.993Z,8.60
2018-01-27T11:42:53.002Z,8.80
2018-01-27T11:45:21.281Z,8.70
2018-01-27T11:47:49.493Z,8.40
2018-01-27T11:50:17.728Z,8.60
2018-01-27T11:52:46.885Z,8.60
2018-01-27T11:55:15.205Z,8.50
2018-01-27T11:57:43.448Z,8.50
2018-01-27T12:00:11.693Z,8.30
2018-01-27T12:02:39.932Z,7.80
2018-01-27T12:05:08.144Z,7.60
2018-01-27T12:07:36.485Z,7.40
2018-01-27T12:10:04.765Z,7.30
2018-01-27T12:12:33.009Z,7.20
2018-01-27T12:15:01.246Z,7.40
2018-01-27T12:17:29.509Z,7.30
2018-01-27T12:19:57.720Z,7.80
2018-01-27T12:22:25.956Z,8.10
2018-01-27T12:24:54.184Z,8.20
2018-01-27T12:27:23.218Z,8.50
2018-01-27T12:29:51.432Z,8.70
2018-01-27T12:32:19.673Z,8.80
2018-01-27T12:34:47.881Z,8.80
2018-01-27T12:37:16.113Z,8.50
2018-01-27T12:39:44.384Z,8.00
2018-01-27T12:42:12.621Z,7.80
2018-01-27T12:44:40.862Z,7.60
2018-01-27T12:47:09.092Z,7.30
2018-01-27T12:49:38.084Z,7.00
2018-01-27T12:52:07.252Z,6.80
2018-01-27T12:54:35.502Z,6.80
2018-01-27T12:57:03.697Z,6.60
2018-01-27T12:59:31.932Z,6.70
2018-01-27T13:02:00.224Z,6.70
2018-01-27T13:04:28.455Z,6.80
2018-01-27T13:06:56.673Z,6.90
2018-01-27T13:09:24.913Z,7.10
2018-01-27T13:11:54.753Z,7.40
2018-01-27T13:14:22.980Z,7.40
2018-01-27T13:16:51.185Z,7.50
2018-01-27T13:19:20.268Z,7.80
2018-01-27T13:21:48.438Z,7.80
2018-01-27T13:24:16.664Z,7.90
2018-01-27T13:26:44.926Z,7.90
2018-01-27T13:29:13.993Z,7.80
2018-01-27T13:31:42.307Z,7.80
2018-01-27T13:34:10.611Z,7.80
2018-01-27T13:36:38.882Z,7.80
2018-01-27T13:39:07.196Z,7.70
2018-01-27T13:41:35.396Z,7.50
2018-01-27T13:44:04.397Z,7.30
2018-01-27T13:46:32.607Z,7.30
2018-01-27T13:49:00.953Z,7.40
2018-01-27T13:51:29.202Z,7.40
2018-01-27T13:53:57.496Z,7.40
2018-01-27T13:56:26.497Z,7.30
2018-01-27T13:58:54.699Z,7.30
2018-01-27T14:01:22.943Z,7.30
2018-01-27T14:03:52.131Z,7.00
2018-01-27T14:06:21.309Z,6.90
2018-01-27T14:08:49.714Z,6.90
2018-01-27T14:11:17.968Z,6.90
2018-01-27T14:13:47.792Z,6.80
2018-01-27T14:16:16.853Z,6.80
2018-01-27T14:18:45.863Z,6.60
2018-01-27T14:21:14.097Z,6.60
2018-01-27T14:23:42.304Z,6.60
2018-01-27T14:26:10.624Z,6.50
2018-01-27T14:28:38.937Z,6.40
2018-01-27T14:31:07.263Z,6.30
2018-01-27T14:33:35.551Z,6.20
2018-01-27T14:36:03.831Z,6.20
2018-01-27T14:38:32.903Z,6.20
2018-01-27T14:41:01.141Z,6.10
2018-01-27T14:43:29.399Z,6.10
2018-01-27T14:45:57.648Z,6.10
2018-01-27T14:48:25.912Z,6.00
2018-01-27T14:50:54.129Z,6.00
2018-01-27T14:53:22.347Z,5.90
2018-01-27T14:55:50.584Z,5.80
2018-01-27T14:58:18.799Z,5.80
2018-01-27T15:00:47.008Z,5.70
2018-01-27T15:03:15.323Z,5.70
2018-01-27T15:05:43.528Z,5.60
2018-01-27T15:08:11.833Z,5.60
2018-01-27T15:10:40.141Z,5.60
2018-01-27T15:13:08.414Z,5.50
2018-01-27T15:15:36.631Z,5.50
2018-01-27T15:18:04.840Z,5.50
2018-01-27T15:20:33.127Z,5.50
2018-01-27T15:23:01.384Z,5.50
2018-01-27T15:25:29.634Z,5.60
2018-01-27T15:27:57.907Z,5.60
2018-01-27T15:30:26.104Z,5.60
2018-01-27T15:32:55.089Z,5.60
2018-01-27T15:35:23.319Z,5.60
2018-01-27T15:37:51.544Z,5.50
2018-01-27T15:40:20.540Z,5.50
2018-01-27T15:42:49.517Z,5.50
2018-01-27T15:45:17.989Z,5.50
2018-01-27T15:47:46.213Z,5.40
2018-01-27T15:50:14.452Z,5.40
2018-01-27T15:52:43.429Z,5.10
2018-01-27T15:55:11.813Z,5.10
2018-01-27T15:57:39.986Z,5.00
2018-01-27T16:00:08.264Z,4.80
2018-01-27T16:02:36.474Z,4.80
2018-01-27T16:05:04.744Z,4.70
2018-01-27T16:07:32.980Z,4.60
2018-01-27T16:10:01.296Z,4.50
2018-01-27T16:12:29.644Z,4.30
2018-01-27T16:14:57.921Z,4.30
2018-01-27T16:17:26.105Z,4.20
2018-01-27T16:19:54.343Z,4.10
2018-01-27T16:22:22.552Z,4.10
2018-01-27T16:24:50.788Z,4.20
2018-01-27T16:27:19.028Z,4.10
2018-01-27T16:29:47.305Z,3.90
2018-01-27T16:32:15.512Z,3.90
2018-01-27T16:34:43.933Z,3.70
2018-01-27T16:37:12.734Z,3.70
2018-01-27T16:39:41.737Z,3.50
2018-01-27T16:42:10.775Z,3.40
2018-01-27T16:44:39.006Z,3.40
2018-01-27T16:47:07.267Z,3.30
2018-01-27T16:49:35.464Z,3.20
2018-01-27T16:52:03.685Z,3.20
2018-01-27T16:54:31.903Z,3.10
2018-01-27T16:57:02.044Z,3.00
2018-01-27T16:59:31.021Z,3.00
2018-01-27T17:02:00.084Z,2.90
2018-01-27T17:04:28.364Z,2.90
2018-01-27T17:06:56.611Z,2.90
2018-01-27T17:09:24.838Z,2.90
2018-01-27T17:11:53.864Z,2.80
2018-01-27T17:14:22.115Z,2.80
2018-01-27T17:16:51.130Z,2.90
2018-01-27T17:19:19.402Z,2.90
2018-01-27T17:21:47.648Z,2.80
2018-01-27T17:24:16.612Z,2.70
2018-01-27T17:26:44.896Z,2.70
2018-01-27T17:29:13.499Z,2.70
2018-01-27T17:31:42.525Z,2.70
2018-01-27T17:34:10.797Z,2.60
2018-01-27T17:36:39.039Z,2.70
2018-01-27T17:39:07.312Z,2.60
2018-01-27T17:41:35.528Z,2.70
2018-01-27T17:44:03.792Z,2.60
2018-01-27T17:46:32.876Z,2.70
2018-01-27T17:49:01.164Z,2.70
2018-01-27T17:51:30.253Z,2.90
2018-01-27T17:53:58.461Z,2.90
2018-01-27T17:56:26.681Z,3.00
2018-01-27T17:58:55.695Z,3.60
2018-01-27T18:01:24.000Z,3.60
2018-01-27T18:03:52.535Z,3.90
2018-01-27T18:06:20.779Z,4.20
2018-01-27T18:08:49.152Z,4.40
2018-01-27T18:11:17.428Z,4.50
2018-01-27T18:13:45.738Z,4.60
2018-01-27T18:16:13.912Z,4.70
2018-01-27T18:18:42.124Z,4.70
2018-01-27T18:21:10.398Z,4.90
2018-01-27T18:23:38.676Z,4.90
2018-01-27T18:26:07.648Z,5.10
2018-01-27T18:28:36.652Z,5.10
2018-01-27T18:31:05.624Z,5.10
2018-01-27T18:33:34.679Z,5.20
2018-01-27T18:36:02.968Z,5.10
2018-01-27T18:38:31.255Z,5.20
2018-01-27T18:40:59.515Z,5.10
2018-01-27T18:43:27.743Z,5.10
2018-01-27T18:45:55.992Z,5.20
2018-01-27T18:48:25.742Z,5.30
2018-01-27T18:50:54.049Z,5.30
2018-01-27T18:53:22.980Z,5.30
2018-01-27T18:55:51.332Z,5.20
2018-01-27T18:58:19.656Z,5.30
2018-01-27T19:00:48.756Z,5.30
2018-01-27T19:03:17.807Z,5.30
2018-01-27T19:05:46.053Z,5.30
2018-01-27T19:08:14.319Z,5.30
2018-01-27T19:10:42.824Z,5.30
2018-01-27T19:13:11.100Z,5.40
2018-01-27T19:15:39.918Z,5.40
2018-01-27T19:18:08.228Z,5.40
2018-01-27T19:20:36.547Z,5.40
2018-01-27T19:23:04.833Z,5.40
2018-01-27T19:25:33.106Z,5.40
2018-01-27T19:28:01.359Z,5.40
2018-01-27T19:30:29.648Z,5.30
2018-01-27T19:32:57.942Z,5.30
2018-01-27T19:35:26.192Z,5.20
2018-01-27T19:37:54.552Z,5.20
2018-01-27T19:40:22.985Z,5.10
2018-01-27T19:42:51.248Z,5.10
2018-01-27T19:45:19.524Z,5.10
2018-01-27T19:47:47.767Z,5.10
2018-01-27T19:50:15.994Z,5.10
2018-01-27T19:52:44.200Z,5.10
2018-01-27T19:55:12.463Z,5.10
2018-01-27T19:57:41.532Z,5.20
2018-01-27T20:00:09.804Z,5.20
2018-01-27T20:02:38.053Z,5.30
2018-01-27T20:05:06.584Z,5.30
2018-01-27T20:07:34.764Z,5.40
2018-01-27T20:10:03.820Z,5.50
2018-01-27T20:12:32.410Z,5.50
2018-01-27T20:15:00.684Z,5.50
2018-01-27T20:17:28.931Z,5.60
2018-01-27T20:19:57.188Z,5.60
2018-01-27T20:22:26.178Z,5.60
2018-01-27T20:24:55.195Z,5.60
2018-01-27T20:27:23.679Z,5.60
2018-01-27T20:29:51.924Z,5.60
2018-01-27T20:32:20.221Z,5.60
2018-01-27T20:34:49.222Z,5.60
2018-01-27T20:37:17.500Z,5.60
2018-01-27T20:39:45.816Z,5.60
2018-01-27T20:42:14.040Z,5.60
2018-01-27T20:44:42.367Z,5.60
2018-01-27T20:47:10.620Z,5.60
2018-01-27T20:49:38.888Z,5.70
2018-01-27T20:52:07.177Z,5.60
2018-01-27T20:54:35.420Z,5.70
2018-01-27T20:57:03.713Z,5.60
2018-01-27T20:59:31.959Z,5.70
2018-01-27T21:02:00.239Z,5.70
2018-01-27T21:04:29.456Z,5.70
2018-01-27T21:06:57.772Z,5.70
2018-01-27T21:09:26.016Z,5.70
2018-01-27T21:11:55.023Z,5.70
2018-01-27T21:14:23.353Z,5.70
2018-01-27T21:16:51.572Z,5.70
2018-01-27T21:19:19.876Z,5.70
2018-01-27T21:21:48.151Z,5.70
2018-01-27T21:24:16.424Z,5.70
2018-01-27T21:26:44.672Z,5.60
2018-01-27T21:29:12.941Z,5.60
2018-01-27T21:31:41.262Z,5.60
2018-01-27T21:34:09.488Z,5.60
2018-01-27T21:36:37.747Z,5.60
2018-01-27T21:39:05.995Z,5.60
2018-01-27T21:41:34.372Z,5.50
2018-01-27T21:44:02.629Z,5.40
2018-01-27T21:46:30.919Z,5.40
2018-01-27T21:48:59.213Z,5.30
2018-01-27T21:51:27.444Z,5.30
2018-01-27T21:53:55.751Z,5.20
2018-01-27T21:56:23.996Z,5.10
2018-01-27T21:58:52.222Z,5.00
2018-01-27T22:01:21.983Z,4.80
2018-01-27T22:03:50.274Z,4.80
2018-01-27T22:06:18.465Z,4.70
2018-01-27T22:08:47.056Z,4.60
2018-01-27T22:11:15.332Z,4.60
2018-01-27T22:13:44.588Z,4.60
2018-01-27T22:16:13.628Z,4.70
2018-01-27T22:18:41.863Z,4.70
2018-01-27T22:21:10.950Z,4.60
2018-01-27T22:23:40.043Z,4.30
2018-01-27T22:26:08.299Z,4.30
2018-01-27T22:28:36.575Z,4.20
2018-01-27T22:31:04.815Z,4.10
2018-01-27T22:33:33.336Z,3.90
2018-01-27T22:36:01.688Z,3.90
2018-01-27T22:38:29.965Z,4.00
2018-01-27T22:40:58.330Z,4.10
2018-01-27T22:43:26.608Z,4.00
2018-01-27T22:45:54.841Z,3.90
2018-01-27T22:48:23.072Z,3.90
2018-01-27T22:50:51.289Z,4.10
2018-01-27T22:53:20.331Z,4.10
2018-01-27T22:55:48.549Z,4.10
2018-01-27T22:58:17.552Z,3.70
2018-01-27T23:00:51.406Z,3.70
2018-01-27T23:03:19.714Z,3.50
2018-01-27T23:05:47.987Z,3.40
2018-01-27T23:08:16.454Z,3.40
2018-01-27T23:10:44.672Z,3.30
2018-01-27T23:13:12.957Z,3.20
2018-01-27T23:15:44.576Z,3.50
2018-01-27T23:18:12.953Z,3.50
2018-01-27T23:20:41.172Z,3.50
2018-01-27T23:23:09.436Z,3.60
2018-01-27T23:25:37.672Z,3.60
2018-01-27T23:28:07.497Z,3.60
2018-01-27T23:30:35.758Z,3.60
2018-01-27T23:33:04.672Z,3.70
2018-01-27T23:35:33.719Z,3.60
2018-01-27T23:38:02.017Z,3.60
2018-01-27T23:40:30.319Z,3.60
2018-01-27T23:42:58.497Z,3.60
2018-01-27T23:45:26.762Z,3.50
2018-01-27T23:47:54.988Z,3.50
2018-01-27T23:50:23.325Z,3.50
2018-01-27T23:52:51.542Z,3.50
2018-01-27T23:55:19.765Z,3.50
2018-01-27T23:57:47.983Z,3.50
